Battle Ground, IN (47920)

8:07 AM EST on February 10, 2016 (GMT -0500)
Prophet's Ridge | | Change Station
CLOSE
Current Station
Personal Weather Station
Location: West Lafayette, IN
Elevation: 679 ft
Nearby Weather Stations
Active Advisory: Special Statement

Elev 679 ft 40.48 °N, 86.89 °W | Updated 54 seconds ago

Partly Cloudy
Partly Cloudy
8.6 °F
Feels Like 9 °F
N
1.0
Wind Variable Wind from NE
Gusts 3.0 mph

Today
High -- | Low -- °F
--% Chance of Precip.
Yesterday
High -- | Low -- °F
Precip. -- in
Pressure 30.05 in
Visibility 10.0 miles
Clouds Few 4200 ft
Windchill 9 °F
Dew Point 4 °F
Humidity 81%
Rainfall 0.00 in
Snow Depth Not available.
7:47 AM 6:15 PM
Waxing Crescent, 5% visible
METAR KLAF 101254Z 28010KT 10SM FEW042 M13/M17 A3002 RMK AO2 SLP176 T11331167
Pressure 30.05 in
Visibility 10.0 miles
Clouds Few 4200 ft
Windchill 9 °F
Dew Point 4 °F
Humidity 81%
Rainfall 0.00 in
Snow Depth Not available.
7:47 AM 6:15 PM
Waxing Crescent, 5% visible
METAR KLAF 101254Z 28010KT 10SM FEW042 M13/M17 A3002 RMK AO2 SLP176 T11331167

10-Day Weather Forecast

Almanac

Astronomy

Feb. 10, 2016 Rise Set
Actual Time
Civil Twilight
Nautical Twilight
Astronomical Twilight
Moon
Length of Visible Light
Length of Day
Tomorrow will be .
, % of the Moon is Illuminated

Today's Extremes

State Highs State Lows

Community

WunderPhotos

Upload Photos

1,891,838 photos uploaded!

WunderBlog® & News

Nearby

Air Quality

  Air Quality AQ Index Pollutant
Not available.

Snow Depth

Station Depth Elevation

Earthquake Activity

City Distance Mag. Time & Date
Minimum magnitude displayed is 2.5.

Coastal Water Temperatures

Place Temperature

Stations

Nearby Weather Stations

Station Location Temp. Windchill Dew Point Humidity Wind Precip. Elev Updated Type
                   

Watches & Warnings

Special Statement
Issued: 3:46 AM EST Feb. 10, 2016 – National Weather Service

... Scattered snow showers ending but cold continues...

Scattered snow showers will gradually end from west to east during
the day. Roads... especially untreated ones... may be slick from
these snow showers as well as from snow that fell previously. Use
extra caution if traveling.

In addition... wind chills below zero are likely this morning and
again late tonight and Thursday morning. Be sure to bundle up if
venturing out.


50